Time;durP1;ratioP1;P1;durP2;ratioP2;P2;SDS_P1;SDS_P2;PMS_P1;PMS_P2;Temp;Humidity;BMP_temperature;BMP_pressure;BME280_temperature;BME280_humidity;BME280_pressure;Samples;Min_cycle;Max_cycle;Signal;HPM_P1;HPM_P2
2023/09/14 00:00:20;;;;;;;3.70;1.80;;;;;;;13.30;94.05;102172.69;4914150;29;20046;-90
2023/09/14 00:02:45;;;;;;;4.40;1.90;;;;;;;13.27;94.06;102177.94;4916457;29;20032;-92
2023/09/14 00:05:11;;;;;;;3.47;1.83;;;;;;;13.25;93.42;102177.97;4913660;29;20048;-91
2023/09/14 00:07:36;;;;;;;4.05;1.70;;;;;;;13.23;93.88;102179.75;4918461;29;20040;-90
2023/09/14 00:10:02;;;;;;;3.70;1.63;;;;;;;13.18;94.06;102174.56;4912781;29;20032;-91
2023/09/14 00:12:28;;;;;;;4.18;1.80;;;;;;;13.17;94.06;102178.06;4918614;29;20365;-90
2023/09/14 00:14:53;;;;;;;4.35;1.70;;;;;;;13.14;94.63;102172.91;4915483;29;20028;-91
2023/09/14 00:17:18;;;;;;;4.00;2.00;;;;;;;13.10;94.39;102170.34;4915034;29;20491;-91
2023/09/14 00:19:43;;;;;;;4.90;1.70;;;;;;;13.05;94.12;102176.53;4918063;29;20036;-90
2023/09/14 00:22:09;;;;;;;5.18;1.60;;;;;;;13.06;94.31;102180.00;4915216;29;20115;-90
2023/09/14 00:24:35;;;;;;;4.97;1.60;;;;;;;13.04;93.99;102181.75;4915807;29;20032;-91
2023/09/14 00:27:00;;;;;;;2.50;1.70;;;;;;;13.02;94.10;102180.91;4915269;29;20043;-90
2023/09/14 00:29:26;;;;;;;5.85;2.05;;;;;;;13.00;94.21;102182.69;4915345;29;20035;-90
2023/09/14 00:31:51;;;;;;;3.10;1.40;;;;;;;12.97;94.10;102172.31;4913116;29;20039;-91
2023/09/14 00:34:16;;;;;;;4.38;1.70;;;;;;;12.95;94.04;102174.91;4910525;29;20481;-91
2023/09/14 00:36:41;;;;;;;4.35;1.67;;;;;;;12.94;93.91;102177.56;4916740;29;20077;-90
2023/09/14 00:39:09;;;;;;;2.80;1.90;;;;;;;12.93;94.39;102173.22;4915714;29;20031;-91
2023/09/14 00:41:35;;;;;;;3.55;1.83;;;;;;;12.93;95.15;102175.84;4916975;29;20036;-90
2023/09/14 00:44:00;;;;;;;4.00;1.65;;;;;;;12.92;94.89;102169.72;4914382;29;20119;-91
2023/09/14 00:46:25;;;;;;;5.10;1.80;;;;;;;12.90;94.16;102167.16;4915988;29;20087;-89
2023/09/14 00:48:51;;;;;;;4.28;1.77;;;;;;;12.86;94.58;102173.31;4914462;29;20028;-90
2023/09/14 00:51:17;;;;;;;4.03;1.67;;;;;;;12.84;95.35;102177.69;4915095;29;20024;-89
2023/09/14 00:53:43;;;;;;;3.45;1.65;;;;;;;12.83;94.85;102175.09;4912738;29;20477;-90
2023/09/14 00:56:11;;;;;;;4.82;1.35;;;;;;;12.80;95.07;102182.97;4916798;29;20040;-90
2023/09/14 00:58:37;;;;;;;4.00;1.77;;;;;;;12.78;95.74;102175.16;4901396;29;20032;-92
2023/09/14 01:01:03;;;;;;;4.15;1.90;;;;;;;12.79;96.34;102176.03;4911795;29;20103;-91
2023/09/14 01:03:30;;;;;;;3.70;1.67;;;;;;;12.78;95.10;102175.16;4907410;29;20472;-90
2023/09/14 01:05:55;;;;;;;4.18;1.50;;;;;;;12.78;95.90;102172.56;4916597;29;20559;-92
2023/09/14 01:08:20;;;;;;;2.75;1.52;;;;;;;12.78;95.06;102174.28;4907181;29;20119;-92
2023/09/14 01:10:46;;;;;;;4.88;1.70;;;;;;;12.75;95.33;102169.97;4916724;29;20032;-91
2023/09/14 01:13:32;;;;;;;3.25;1.80;;;;;;;12.77;94.77;102173.44;4901240;29;20028;-90
2023/09/14 01:16:32;;;;;;;3.78;1.90;;;;;;;12.80;94.89;102172.53;4917180;29;20484;-91
2023/09/14 01:19:37;;;;;;;2.92;1.70;;;;;;;12.79;95.41;102174.28;4918014;29;20036;-91
2023/09/14 01:22:22;;;;;;;2.55;1.60;;;;;;;12.76;95.10;102166.50;4915899;29;20032;-91
2023/09/14 01:24:56;;;;;;;2.97;1.70;;;;;;;12.74;94.96;102173.47;4908733;29;20042;-91
2023/09/14 01:27:22;;;;;;;2.45;1.50;;;;;;;12.74;95.37;102173.47;4914691;29;20032;-91
2023/09/14 01:29:48;;;;;;;3.85;1.75;;;;;;;12.74;95.02;102176.09;4913454;29;20384;-90
2023/09/14 01:32:13;;;;;;;6.07;1.80;;;;;;;12.74;95.13;102173.47;4914191;29;20024;-90
2023/09/14 01:34:38;;;;;;;3.63;1.60;;;;;;;12.73;94.82;102170.00;4916508;29;20032;-90
2023/09/14 01:37:04;;;;;;;3.58;1.55;;;;;;;12.70;94.16;102170.06;4908607;29;20119;-90
2023/09/14 01:39:31;;;;;;;2.90;1.60;;;;;;;12.65;93.95;102174.47;4914523;29;20429;-92
2023/09/14 01:41:57;;;;;;;4.55;1.50;;;;;;;12.58;93.77;102178.91;4914407;29;20036;-92
2023/09/14 01:44:25;;;;;;;5.00;1.20;;;;;;;12.50;93.48;102177.28;4914880;29;20024;-92
2023/09/14 01:46:50;;;;;;;2.05;1.30;;;;;;;12.44;93.79;102178.22;4912551;29;20051;-89
2023/09/14 01:49:16;;;;;;;1.35;0.88;;;;;;;12.40;93.64;102179.13;4913250;29;20024;-89
2023/09/14 01:51:41;;;;;;;2.90;0.90;;;;;;;12.35;94.09;102178.31;4914810;29;20103;-91
2023/09/14 01:54:06;;;;;;;2.13;1.05;;;;;;;12.32;94.15;102176.59;4913511;29;20068;-91
2023/09/14 01:56:31;;;;;;;2.17;1.20;;;;;;;12.31;94.70;102182.72;4912678;29;20511;-91
2023/09/14 01:58:57;;;;;;;3.20;1.33;;;;;;;12.29;94.80;102177.53;4914736;29;20039;-90
2023/09/14 02:01:22;;;;;;;2.40;1.15;;;;;;;12.31;94.37;102180.09;4914871;29;20024;-91
2023/09/14 02:03:47;;;;;;;3.42;1.52;;;;;;;12.27;93.90;102181.00;4914055;29;20152;-90
2023/09/14 02:06:13;;;;;;;4.07;1.67;;;;;;;12.25;95.35;102177.53;4915565;29;20028;-91
2023/09/14 02:08:38;;;;;;;5.38;1.70;;;;;;;12.24;95.71;102176.69;4913966;29;20164;-91
2023/09/14 02:11:03;;;;;;;3.75;1.50;;;;;;;12.23;93.99;102166.25;4896452;29;20044;-91
2023/09/14 02:13:29;;;;;;;3.05;1.50;;;;;;;12.20;94.08;102177.59;4909645;29;20039;-92
2023/09/14 02:15:54;;;;;;;2.85;1.70;;;;;;;12.18;94.32;102173.28;4913334;29;20092;-91
2023/09/14 02:18:19;;;;;;;3.42;1.60;;;;;;;12.16;94.59;102173.28;4915802;29;20032;-92
2023/09/14 02:20:45;;;;;;;2.85;1.75;;;;;;;12.16;95.26;102173.28;4913471;29;20540;-92
2023/09/14 02:23:10;;;;;;;2.13;1.48;;;;;;;12.15;94.40;102171.56;4911704;29;20086;-91
2023/09/14 02:25:35;;;;;;;3.10;1.60;;;;;;;12.13;94.36;102165.50;4906173;29;20024;-90
2023/09/14 02:28:02;;;;;;;4.00;1.70;;;;;;;12.12;94.55;102174.22;4911895;29;20119;-92
2023/09/14 02:30:28;;;;;;;5.25;1.70;;;;;;;12.13;94.83;102168.97;4912219;29;20083;-90
2023/09/14 02:32:53;;;;;;;2.60;1.63;;;;;;;12.12;94.60;102163.78;4913501;29;20039;-91
2023/09/14 02:35:18;;;;;;;2.97;1.58;;;;;;;12.11;94.43;102167.28;4906686;29;20020;-91
2023/09/14 02:37:44;;;;;;;3.03;1.50;;;;;;;12.09;94.56;102162.06;4913414;29;20036;-92
2023/09/14 02:40:10;;;;;;;3.17;1.70;;;;;;;12.06;94.75;102161.25;4911545;29;20055;-93
2023/09/14 02:42:37;;;;;;;2.45;1.40;;;;;;;12.03;94.21;102162.16;4906663;29;20414;-91
2023/09/14 02:45:03;;;;;;;2.05;1.33;;;;;;;12.01;94.66;102161.28;4895328;29;20059;-91
2023/09/14 02:47:28;;;;;;;3.20;1.30;;;;;;;12.01;94.95;102157.81;4907470;29;20115;-90
2023/09/14 02:49:53;;;;;;;2.38;1.45;;;;;;;12.02;94.28;102151.72;4909100;29;20136;-92
2023/09/14 02:52:18;;;;;;;3.72;1.35;;;;;;;12.01;94.20;102160.41;4911864;29;20032;-91
2023/09/14 02:54:44;;;;;;;3.17;1.60;;;;;;;11.96;94.04;102155.22;4901761;29;20037;-92
2023/09/14 02:57:09;;;;;;;2.88;1.50;;;;;;;11.94;94.29;102149.16;4911725;29;20043;-90
2023/09/14 02:59:34;;;;;;;2.75;1.60;;;;;;;11.94;94.38;102151.75;4912148;29;20144;-90
2023/09/14 03:02:00;;;;;;;2.35;1.50;;;;;;;11.95;94.32;102156.09;4908782;29;20040;-92
2023/09/14 03:04:25;;;;;;;4.20;1.63;;;;;;;11.92;94.27;102162.22;4917744;29;20040;-92
2023/09/14 03:06:51;;;;;;;3.50;1.70;;;;;;;11.89;94.12;102153.53;4909913;29;20047;-92
2023/09/14 03:09:16;;;;;;;2.20;1.45;;;;;;;11.84;94.49;102158.81;4911050;29;20507;-90
2023/09/14 03:11:41;;;;;;;2.70;1.35;;;;;;;11.82;94.28;102155.34;4909809;29;20087;-92
2023/09/14 03:14:07;;;;;;;2.58;1.30;;;;;;;11.79;94.52;102156.25;4902892;29;20032;-92
2023/09/14 03:16:32;;;;;;;2.35;1.30;;;;;;;11.77;93.89;102157.16;4912179;29;20063;-91
2023/09/14 03:18:57;;;;;;;4.25;1.33;;;;;;;11.74;94.30;102151.97;4913335;29;20040;-91
2023/09/14 03:21:27;;;;;;;2.25;1.30;;;;;;;11.73;94.32;102160.66;4917127;29;20044;-92
2023/09/14 03:23:53;;;;;;;2.78;1.30;;;;;;;11.73;93.86;102165.88;4916657;29;20032;-91
2023/09/14 03:26:18;;;;;;;4.40;1.30;;;;;;;11.69;94.45;102163.31;4917411;29;20440;-90
2023/09/14 03:28:45;;;;;;;2.03;1.30;;;;;;;11.67;94.78;102161.59;4915529;29;20485;-91
2023/09/14 03:31:11;;;;;;;3.83;1.33;;;;;;;11.64;94.59;102166.84;4916399;29;20043;-91
2023/09/14 03:33:37;;;;;;;3.03;1.40;;;;;;;11.62;94.62;102165.97;4917462;29;20400;-91
2023/09/14 03:36:03;;;;;;;3.05;1.35;;;;;;;11.61;95.32;102162.53;4915720;29;20060;-90
2023/09/14 03:38:29;;;;;;;4.53;1.67;;;;;;;11.61;95.34;102162.53;4917287;29;20056;-93
2023/09/14 03:40:54;;;;;;;2.38;1.50;;;;;;;11.59;94.97;102166.88;4916540;29;20074;-90
2023/09/14 03:43:19;;;;;;;4.10;1.60;;;;;;;11.61;94.71;102166.84;4918879;29;20031;-91
2023/09/14 03:45:45;;;;;;;3.40;1.55;;;;;;;11.61;94.18;102167.72;4913615;29;20036;-92
2023/09/14 03:48:10;;;;;;;2.08;1.15;;;;;;;11.58;94.48;102172.97;4917705;29;20064;-91
2023/09/14 03:50:35;;;;;;;2.72;1.50;;;;;;;11.58;94.30;102166.88;4917843;29;20024;-91
2023/09/14 03:53:02;;;;;;;2.80;1.40;;;;;;;11.58;93.78;102167.75;4916893;29;20075;-91
2023/09/14 03:55:28;;;;;;;2.78;1.60;;;;;;;11.58;93.72;102157.31;4908781;29;20840;-91
2023/09/14 03:57:54;;;;;;;3.40;1.40;;;;;;;11.54;94.01;102160.84;4899339;29;20070;-91
2023/09/14 04:00:19;;;;;;;2.50;1.50;;;;;;;11.53;94.18;102159.09;4915755;29;20063;-92
2023/09/14 04:02:44;;;;;;;4.90;1.40;;;;;;;11.51;93.45;102161.72;4911045;29;20114;-90
2023/09/14 04:05:14;;;;;;;4.03;1.60;;;;;;;11.52;93.88;102162.59;4918560;29;20038;-91
2023/09/14 04:07:40;;;;;;;1.80;1.10;;;;;;;11.49;93.81;102157.38;4913832;29;20043;-90
2023/09/14 04:10:09;;;;;;;2.65;1.52;;;;;;;11.48;93.08;102161.75;4917879;29;20028;-91
2023/09/14 04:12:35;;;;;;;3.15;1.40;;;;;;;11.46;92.89;102163.50;4899187;29;20032;-92
2023/09/14 04:15:01;;;;;;;1.90;1.20;;;;;;;11.45;92.61;102166.09;4915104;29;20035;-91
2023/09/14 04:17:26;;;;;;;2.22;1.17;;;;;;;11.40;92.44;102158.31;4912829;29;20625;-90
2023/09/14 04:19:52;;;;;;;1.65;1.00;;;;;;;11.35;92.46;102147.94;4909538;29;20028;-91
2023/09/14 04:22:18;;;;;;;2.03;1.13;;;;;;;11.30;92.60;102157.53;4912044;29;20396;-92
2023/09/14 04:24:43;;;;;;;1.52;1.08;;;;;;;11.26;92.97;102155.84;4916617;29;20048;-93
2023/09/14 04:27:08;;;;;;;1.77;1.10;;;;;;;11.26;92.73;102155.84;4916305;29;20039;-90
2023/09/14 04:29:33;;;;;;;2.30;1.13;;;;;;;11.24;92.04;102157.59;4913273;29;20488;-91
2023/09/14 04:31:59;;;;;;;1.15;1.00;;;;;;;11.20;92.44;102166.31;4915141;29;20035;-91
2023/09/14 04:34:24;;;;;;;1.58;1.00;;;;;;;11.15;92.83;102168.94;4911615;29;20035;-92
2023/09/14 04:36:49;;;;;;;3.63;1.38;;;;;;;11.14;92.57;102166.34;4916317;29;20428;-91
2023/09/14 04:39:15;;;;;;;1.77;1.00;;;;;;;11.13;92.05;102164.59;4913462;29;20135;-92
2023/09/14 04:41:41;;;;;;;1.30;0.93;;;;;;;11.08;92.41;102165.53;4915906;29;20079;-93
2023/09/14 04:44:06;;;;;;;1.98;1.13;;;;;;;11.06;93.84;102167.25;4915236;29;20050;-93
2023/09/14 04:46:32;;;;;;;2.83;1.10;;;;;;;11.06;93.47;102164.66;4914987;29;20044;-92
2023/09/14 04:48:57;;;;;;;2.65;1.08;;;;;;;11.07;93.46;102163.78;4915235;29;20051;-92
2023/09/14 04:51:23;;;;;;;2.70;1.20;;;;;;;11.08;93.33;102167.25;4912166;29;20057;-92
2023/09/14 04:53:48;;;;;;;1.90;0.80;;;;;;;11.10;93.65;102165.50;4911580;29;20368;-92
2023/09/14 04:56:13;;;;;;;1.65;0.80;;;;;;;11.07;92.60;102171.59;4913016;29;20118;-93
2023/09/14 04:58:39;;;;;;;0.63;0.60;;;;;;;11.05;92.67;102177.69;4912374;29;20032;-91
2023/09/14 05:01:05;;;;;;;0.68;0.55;;;;;;;11.02;92.56;102178.56;4906544;29;20034;-92
2023/09/14 05:03:30;;;;;;;0.65;0.57;;;;;;;10.98;93.14;102176.84;4912704;29;20465;-92
2023/09/14 05:05:56;;;;;;;0.68;0.50;;;;;;;10.98;92.93;102179.44;4912508;29;20044;-91
2023/09/14 05:08:22;;;;;;;0.47;0.40;;;;;;;10.97;93.35;102177.72;4914333;29;20428;-92
2023/09/14 05:10:51;;;;;;;2.15;0.50;;;;;;;10.97;93.04;102172.50;4911057;29;20084;-91
2023/09/14 05:13:18;;;;;;;0.73;0.50;;;;;;;10.96;93.11;102168.19;4915268;29;20107;-91
2023/09/14 05:15:44;;;;;;;0.98;0.50;;;;;;;10.97;92.94;102180.31;4914069;29;20160;-93
2023/09/14 05:18:09;;;;;;;0.50;0.40;;;;;;;10.95;92.88;102178.63;4911754;29;20075;-91
2023/09/14 05:20:35;;;;;;;0.65;0.50;;;;;;;10.91;92.86;102180.38;4908019;29;20103;-91
2023/09/14 05:23:00;;;;;;;0.43;0.43;;;;;;;10.89;92.91;102184.72;4918018;29;20047;-91
2023/09/14 05:25:27;;;;;;;0.63;0.45;;;;;;;10.88;93.19;102180.41;4916994;29;20050;-92
2023/09/14 05:27:53;;;;;;;0.65;0.50;;;;;;;10.87;93.34;102183.88;4912326;29;20028;-92
2023/09/14 05:30:21;;;;;;;1.17;0.73;;;;;;;10.84;93.45;102189.09;4912875;29;20027;-93
2023/09/14 05:32:47;;;;;;;3.00;0.93;;;;;;;10.82;93.66;102185.63;4912694;29;20038;-91
2023/09/14 05:35:12;;;;;;;1.63;0.85;;;;;;;10.82;94.10;102190.81;4911271;29;20024;-91
2023/09/14 05:37:38;;;;;;;2.17;1.25;;;;;;;10.81;93.96;102197.78;4910756;29;20124;-91
2023/09/14 05:40:12;;;;;;;1.25;0.77;;;;;;;10.82;93.94;102201.25;4913933;29;20023;-93
2023/09/14 05:42:38;;;;;;;2.47;0.80;;;;;;;10.81;94.05;102192.59;4912966;29;20036;-91
2023/09/14 05:45:14;;;;;;;1.35;0.90;;;;;;;10.81;93.94;102199.50;4915105;29;20047;-91
2023/09/14 05:47:39;;;;;;;2.30;0.90;;;;;;;10.81;94.29;102204.72;4904684;29;20048;-93
2023/09/14 05:50:08;;;;;;;2.05;0.95;;;;;;;10.81;94.39;102208.19;4915655;29;20039;-91
2023/09/14 05:52:34;;;;;;;2.25;1.17;;;;;;;10.82;94.53;102201.25;4915944;29;20036;-91
2023/09/14 05:54:59;;;;;;;3.33;0.98;;;;;;;10.85;94.63;102196.03;4914511;29;20059;-92
2023/09/14 05:57:24;;;;;;;2.47;1.40;;;;;;;10.89;95.48;102200.34;4912958;29;20038;-93
2023/09/14 05:59:50;;;;;;;2.05;1.25;;;;;;;10.91;95.31;102202.06;4912749;29;20040;-90
2023/09/14 06:02:16;;;;;;;3.60;2.17;;;;;;;10.97;96.05;102201.16;4907769;29;20035;-93
2023/09/14 06:04:41;;;;;;;3.03;2.10;;;;;;;11.05;96.62;102204.59;4895834;29;20348;-93
2023/09/14 06:07:06;;;;;;;3.58;1.80;;;;;;;11.11;96.14;102205.41;4914102;29;20164;-91
2023/09/14 06:09:32;;;;;;;1.60;1.30;;;;;;;11.18;96.58;102201.91;4911020;29;20036;-92
2023/09/14 06:11:57;;;;;;;2.67;1.42;;;;;;;11.25;96.39;102201.00;4911521;29;20040;-92
2023/09/14 06:14:23;;;;;;;2.35;1.13;;;;;;;11.32;96.19;102202.69;4917237;29;20429;-93
2023/09/14 06:16:48;;;;;;;2.67;1.02;;;;;;;11.39;96.50;102198.28;4921926;29;20071;-93
2023/09/14 06:19:13;;;;;;;3.42;2.00;;;;;;;11.47;96.64;102195.63;4914889;29;20028;-90
2023/09/14 06:21:40;;;;;;;3.15;1.73;;;;;;;11.53;96.79;102200.81;4915651;29;20032;-92
2023/09/14 06:24:05;;;;;;;6.90;2.38;;;;;;;11.59;96.86;102205.97;4914819;29;20028;-92
2023/09/14 06:26:30;;;;;;;4.82;2.40;;;;;;;11.65;96.82;102203.31;4914879;29;20445;-90
2023/09/14 06:28:56;;;;;;;4.38;2.08;;;;;;;11.73;97.11;102202.38;4913483;29;20115;-91
2023/09/14 06:31:24;;;;;;;4.15;2.25;;;;;;;11.80;97.82;102204.91;4910729;29;20547;-90
2023/09/14 06:33:50;;;;;;;3.75;2.00;;;;;;;11.86;97.82;102204.00;4915468;29;20384;-90
2023/09/14 06:36:18;;;;;;;5.50;2.30;;;;;;;11.94;97.97;102210.03;4915108;29;20544;-91
2023/09/14 06:38:47;;;;;;;3.80;2.40;;;;;;;12.01;98.06;102213.47;4896529;29;20513;-92
2023/09/14 06:41:13;;;;;;;4.55;2.13;;;;;;;12.06;98.54;102209.03;4902321;29;20126;-92
2023/09/14 06:43:40;;;;;;;4.60;2.42;;;;;;;12.12;98.88;102214.22;4912938;29;20056;-90
2023/09/14 06:46:06;;;;;;;6.05;2.40;;;;;;;12.19;99.58;102201.97;4907082;29;20036;-91
2023/09/14 06:48:32;;;;;;;6.72;2.47;;;;;;;12.25;99.79;102204.53;4912182;29;20149;-91
2023/09/14 06:50:57;;;;;;;4.53;2.60;;;;;;;12.31;100.00;102206.19;4913315;29;20437;-91
2023/09/14 06:53:22;;;;;;;4.45;2.58;;;;;;;12.39;100.00;102204.34;4913216;29;20495;-91
2023/09/14 06:55:47;;;;;;;5.88;2.75;;;;;;;12.45;100.00;102201.69;4912963;29;20071;-90
2023/09/14 06:58:14;;;;;;;7.32;2.70;;;;;;;12.52;100.00;102202.47;4911949;29;20479;-91
2023/09/14 07:00:39;;;;;;;5.40;2.75;;;;;;;12.60;100.00;102203.25;4903620;29;20029;-89
2023/09/14 07:03:04;;;;;;;6.75;3.10;;;;;;;12.66;100.00;102211.88;4902615;29;20028;-92
2023/09/14 07:05:30;;;;;;;5.68;2.85;;;;;;;12.73;100.00;102208.31;4906014;29;20361;-90
2023/09/14 07:07:56;;;;;;;7.03;2.90;;;;;;;12.78;100.00;102211.72;4902798;29;20512;-90
2023/09/14 07:10:21;;;;;;;5.10;3.08;;;;;;;12.84;100.00;102211.63;4899494;29;20036;-91
2023/09/14 07:12:48;;;;;;;6.65;2.97;;;;;;;12.93;100.00;102212.41;4908802;29;20036;-92
2023/09/14 07:15:13;;;;;;;6.68;3.25;;;;;;;12.99;100.00;102215.78;4914165;29;20032;-90
2023/09/14 07:17:39;;;;;;;4.70;2.83;;;;;;;13.08;100.00;102217.41;4905073;29;20039;-91
2023/09/14 07:20:05;;;;;;;9.20;3.80;;;;;;;13.17;100.00;102208.59;4913571;29;20399;-91
2023/09/14 07:22:30;;;;;;;7.35;3.15;;;;;;;13.25;100.00;102211.09;4906889;29;20482;-91
2023/09/14 07:24:55;;;;;;;4.97;3.28;;;;;;;13.32;100.00;102207.50;4913310;29;20028;-91
2023/09/14 07:27:22;;;;;;;6.80;3.40;;;;;;;13.39;100.00;102206.50;4906371;29;20054;-90
2023/09/14 07:29:48;;;;;;;5.80;3.15;;;;;;;13.47;100.00;102212.53;4898649;29;20480;-91
2023/09/14 07:32:14;;;;;;;8.68;3.78;;;;;;;13.57;100.00;102217.59;4909929;29;20040;-91
2023/09/14 07:34:39;;;;;;;6.78;3.72;;;;;;;13.62;100.00;102211.38;4908503;29;20063;-91
2023/09/14 07:37:04;;;;;;;6.00;3.50;;;;;;;13.68;100.00;102215.66;4910774;29;20066;-92
2023/09/14 07:39:29;;;;;;;9.18;3.55;;;;;;;13.74;100.00;102220.78;4910122;29;20056;-91
2023/09/14 07:41:56;;;;;;;8.60;4.32;;;;;;;13.81;100.00;102219.81;4908441;29;20025;-92
2023/09/14 07:44:22;;;;;;;8.20;3.80;;;;;;;13.89;100.00;102219.69;4906180;29;20557;-92
2023/09/14 07:46:52;;;;;;;7.20;3.38;;;;;;;13.95;100.00;102223.94;4906179;29;20056;-91
2023/09/14 07:49:18;;;;;;;5.40;3.08;;;;;;;14.02;100.00;102225.53;4888096;29;20091;-89
2023/09/14 07:51:43;;;;;;;8.73;3.63;;;;;;;14.08;100.00;102222.81;4911763;29;20031;-89
2023/09/14 07:54:08;;;;;;;8.40;3.42;;;;;;;14.16;100.00;102227.06;4912780;29;20393;-92
2023/09/14 07:56:33;;;;;;;5.28;3.28;;;;;;;14.23;100.00;102224.28;4911378;29;20042;-91
2023/09/14 07:58:59;;;;;;;8.57;3.65;;;;;;;14.28;100.00;102232.06;4911400;29;20048;-90
2023/09/14 08:01:24;;;;;;;7.40;3.55;;;;;;;14.32;99.99;102233.72;4910677;29;20035;-90
2023/09/14 08:03:50;;;;;;;8.02;3.85;;;;;;;14.37;100.00;102237.09;4907631;29;20076;-92
2023/09/14 08:06:18;;;;;;;7.35;3.55;;;;;;;14.39;100.00;102240.56;4910723;29;20040;-91
2023/09/14 08:08:44;;;;;;;8.73;3.83;;;;;;;14.42;99.69;102229.19;4909953;29;20176;-92
2023/09/14 08:11:09;;;;;;;7.20;3.72;;;;;;;14.48;99.50;102229.03;4908068;29;20084;-91
2023/09/14 08:13:34;;;;;;;8.02;4.15;;;;;;;14.54;100.00;102234.16;4908886;29;20498;-90
2023/09/14 08:16:06;;;;;;;6.68;3.75;;;;;;;14.61;99.79;102228.78;4909941;29;20024;-91
2023/09/14 08:18:32;;;;;;;8.82;3.95;;;;;;;14.65;99.27;102227.84;4906945;29;20047;-89
2023/09/14 08:20:57;;;;;;;8.57;4.05;;;;;;;14.71;99.95;102233.00;4908095;29;20550;-90
2023/09/14 08:23:22;;;;;;;7.55;3.97;;;;;;;14.77;99.87;102221.50;4906825;29;20099;-91
2023/09/14 08:25:48;;;;;;;7.60;4.28;;;;;;;14.83;100.00;102229.25;4908472;29;20396;-90
2023/09/14 08:28:15;;;;;;;7.22;3.83;;;;;;;14.89;99.56;102229.09;4912141;29;20031;-90
2023/09/14 08:30:42;;;;;;;6.93;4.20;;;;;;;14.95;99.60;102233.34;4915639;29;20032;-90
2023/09/14 08:33:08;;;;;;;8.82;4.50;;;;;;;15.00;100.00;102232.38;4912102;29;20028;-94
2023/09/14 08:35:35;;;;;;;8.68;4.80;;;;;;;15.04;100.00;102227.91;4914013;29;20039;-93
2023/09/14 08:38:03;;;;;;;6.85;3.90;;;;;;;15.13;100.00;102229.47;4913598;29;20400;-94
2023/09/14 08:40:29;;;;;;;7.15;4.15;;;;;;;15.16;100.00;102226.78;4922951;29;20091;-94
2023/09/14 08:42:56;;;;;;;8.32;4.97;;;;;;;15.20;99.49;102231.03;4912825;29;20059;-95
2023/09/14 08:45:27;;;;;;;7.75;4.88;;;;;;;15.26;100.00;102237.91;4914127;29;20024;-93
2023/09/14 08:47:53;;;;;;;9.43;5.00;;;;;;;15.28;98.83;102236.13;4915723;29;20070;-93
2023/09/14 08:50:22;;;;;;;12.45;5.70;;;;;;;15.32;98.53;102243.88;4911827;29;20036;-95
2023/09/14 08:52:47;;;;;;;7.45;4.40;;;;;;;15.39;100.00;102235.84;4912040;29;20051;-93
2023/09/14 08:55:16;;;;;;;10.15;4.90;;;;;;;15.42;99.37;102235.78;4916090;29;20024;-95
2023/09/14 08:57:44;;;;;;;7.57;4.45;;;;;;;15.46;99.41;102240.91;4914790;29;20032;-92
2023/09/14 09:00:17;;;;;;;7.82;4.45;;;;;;;15.52;99.64;102239.06;4913358;29;20031;-94
2023/09/14 09:02:47;;;;;;;8.93;4.50;;;;;;;15.56;99.03;102231.06;4915189;29;20035;-94
2023/09/14 09:05:17;;;;;;;10.07;5.85;;;;;;;15.61;98.40;102226.56;4911639;29;20120;-93
2023/09/14 09:07:44;;;;;;;9.65;5.45;;;;;;;15.64;96.26;102228.25;4914834;29;20095;-93
2023/09/14 09:10:18;;;;;;;10.18;5.32;;;;;;;15.66;95.56;102233.47;4913281;29;20028;-92
2023/09/14 09:12:45;;;;;;;11.07;5.55;;;;;;;15.69;95.98;102230.78;4912002;29;20096;-93
2023/09/14 09:15:11;;;;;;;9.23;5.85;;;;;;;15.73;95.21;102232.41;4903013;29;20024;-95
2023/09/14 09:17:38;;;;;;;9.25;5.68;;;;;;;15.76;95.15;102233.22;4910603;29;20551;-95
2023/09/14 09:20:12;;;;;;;10.80;6.25;;;;;;;15.82;95.57;102231.31;4901601;29;20093;-94
2023/09/14 09:22:44;;;;;;;11.05;5.72;;;;;;;15.86;94.80;102218.13;4904904;29;20151;-92
2023/09/14 09:25:10;;;;;;;10.98;6.03;;;;;;;15.89;93.46;102218.03;4903211;29;20023;-95
2023/09/14 09:27:38;;;;;;;11.93;6.55;;;;;;;15.90;90.63;102222.38;4919824;29;20058;-96
2023/09/14 09:30:04;;;;;;;11.90;6.47;;;;;;;15.95;91.15;102226.66;4894739;29;20039;-92
2023/09/14 09:32:29;;;;;;;11.95;7.05;;;;;;;15.96;90.61;102228.38;4912346;29;20028;-95
2023/09/14 09:34:54;;;;;;;12.40;6.88;;;;;;;16.02;92.44;102223.81;4910846;29;20020;-94
2023/09/14 09:37:20;;;;;;;12.00;6.13;;;;;;;16.06;93.00;102229.84;4913141;29;21590;-96
2023/09/14 09:39:46;;;;;;;12.18;6.38;;;;;;;16.06;90.68;102222.84;4898942;29;20036;-93
2023/09/14 09:42:13;;;;;;;12.55;6.80;;;;;;;16.10;90.94;102223.63;4912801;29;20461;-94
2023/09/14 09:44:39;;;;;;;11.50;6.82;;;;;;;16.12;90.28;102221.81;4911635;29;20024;-93
2023/09/14 09:47:04;;;;;;;11.40;6.80;;;;;;;16.17;90.44;102221.69;4910292;29;20717;-95
2023/09/14 09:49:31;;;;;;;10.57;6.53;;;;;;;16.20;88.69;102222.47;4908966;29;20524;-95
2023/09/14 09:51:57;;;;;;;12.18;6.70;;;;;;;16.23;87.95;102222.38;4911630;29;20031;-93
2023/09/14 09:54:27;;;;;;;9.65;5.78;;;;;;;16.32;90.46;102215.16;4914230;29;20067;-93
2023/09/14 09:56:53;;;;;;;8.57;5.20;;;;;;;16.37;90.98;102214.13;4912928;29;20153;-94
2023/09/14 09:59:18;;;;;;;9.57;5.43;;;;;;;16.40;88.33;102210.53;4909189;29;20488;-94
2023/09/14 10:01:46;;;;;;;10.63;5.60;;;;;;;16.44;88.65;102200.81;4911824;29;20028;-94
2023/09/14 10:04:12;;;;;;;10.85;5.88;;;;;;;16.49;86.29;102212.91;4911126;29;20039;-94
2023/09/14 10:06:38;;;;;;;10.45;5.38;;;;;;;16.56;88.57;102212.75;4914335;29;20063;-94
2023/09/14 10:09:08;;;;;;;9.25;5.10;;;;;;;16.59;84.48;102212.63;4912674;29;20038;-94
2023/09/14 10:11:34;;;;;;;8.80;4.10;;;;;;;16.61;81.97;102210.81;4921706;29;20541;-94
2023/09/14 10:14:02;;;;;;;6.80;4.07;;;;;;;16.64;82.08;102208.13;4914448;29;20039;-94
2023/09/14 10:16:30;;;;;;;7.88;4.28;;;;;;;16.70;84.64;102205.31;4920093;29;20056;-92
2023/09/14 10:18:57;;;;;;;8.30;4.40;;;;;;;16.79;87.37;102204.19;4917218;29;20036;-93
2023/09/14 10:21:25;;;;;;;8.85;4.32;;;;;;;16.81;81.89;102213.72;4917749;29;20035;-93
2023/09/14 10:23:51;;;;;;;6.75;3.75;;;;;;;16.84;80.75;102208.38;4915209;29;20429;-90
2023/09/14 10:26:18;;;;;;;8.38;4.57;;;;;;;16.91;82.82;102200.31;4915211;29;20028;-94
2023/09/14 10:28:44;;;;;;;8.23;4.40;;;;;;;16.94;79.89;102205.47;4915465;29;20039;-94
2023/09/14 10:31:11;;;;;;;8.07;4.55;;;;;;;16.99;79.42;102206.22;4920549;29;20019;-92
2023/09/14 10:33:37;;;;;;;7.13;3.85;;;;;;;17.03;77.28;102201.72;4922830;29;20050;-95
2023/09/14 10:36:04;;;;;;;6.93;3.85;;;;;;;17.07;75.11;102208.59;4922229;29;20087;-94
2023/09/14 10:38:32;;;;;;;7.22;3.85;;;;;;;17.14;75.42;102204.91;4924045;29;20031;-94
2023/09/14 10:40:58;;;;;;;7.13;4.05;;;;;;;17.23;78.26;102201.13;4917322;29;20036;-96
2023/09/14 10:43:23;;;;;;;7.38;3.90;;;;;;;17.27;77.53;102194.81;4914141;29;20040;-96
2023/09/14 10:45:56;;;;;;;6.75;3.70;;;;;;;17.31;76.52;102192.97;4909833;29;20119;-93
2023/09/14 10:48:22;;;;;;;7.03;4.40;;;;;;;17.38;77.44;102192.72;4893074;29;20099;-91
2023/09/14 10:50:51;;;;;;;7.97;4.13;;;;;;;17.50;76.65;102187.94;4910569;29;20036;-93
2023/09/14 10:53:16;;;;;;;7.90;4.35;;;;;;;17.56;75.31;102185.97;4916011;29;20032;-96
2023/09/14 10:55:42;;;;;;;8.20;4.30;;;;;;;17.61;72.71;102183.19;4907980;29;20571;-93
2023/09/14 10:58:12;;;;;;;7.72;4.20;;;;;;;17.66;75.67;102178.63;4913546;29;20039;-93
2023/09/14 11:00:42;;;;;;;8.07;4.13;;;;;;;17.66;73.68;102181.25;4913696;29;20074;-94
2023/09/14 11:03:07;;;;;;;8.63;3.85;;;;;;;17.65;74.97;102179.53;4921826;29;20032;-92
2023/09/14 11:05:44;;;;;;;6.70;3.65;;;;;;;17.62;74.51;102179.63;4917720;29;20068;-95
2023/09/14 11:08:10;;;;;;;9.00;3.47;;;;;;;17.59;72.08;102182.41;4927005;29;20091;-96
2023/09/14 11:10:39;;;;;;;6.30;3.45;;;;;;;17.59;74.37;102179.75;4927648;29;20111;-95
2023/09/14 11:13:30;;;;;;;6.43;3.60;;;;;;;17.58;73.28;102180.69;4920430;29;20035;-94
2023/09/14 11:16:13;;;;;;;7.22;3.80;;;;;;;17.62;73.65;102182.25;4925146;29;20138;-94
2023/09/14 11:18:44;;;;;;;5.70;3.03;;;;;;;17.70;76.17;102174.97;4916553;29;20027;-95
2023/09/14 11:21:31;;;;;;;6.50;3.53;;;;;;;17.81;75.89;102179.00;4915658;29;20028;-93